Time;durP1;ratioP1;P1;durP2;ratioP2;P2;SDS_P1;SDS_P2;PMS_P1;PMS_P2;Temp;Humidity;BMP_temperature;BMP_pressure;BME280_temperature;BME280_humidity;BME280_pressure;Samples;Min_cycle;Max_cycle;Signal;HPM_P1;HPM_P2
2023/11/11 00:01:11;;;;;;;8.55;4.97;;;;;;;;;;5862462;28;20061;-73
2023/11/11 00:04:02;;;;;;;5.97;3.00;;;;;;;;;;5862112;28;20045;-73
2023/11/11 00:06:54;;;;;;;4.78;3.03;;;;;;;;;;5862494;28;20041;-73
2023/11/11 00:09:44;;;;;;;2.75;2.40;;;;;;;;;;5862372;28;20049;-73
2023/11/11 00:12:35;;;;;;;3.72;1.67;;;;;;;;;;5862075;28;20049;-73
2023/11/11 00:15:27;;;;;;;6.82;2.42;;;;;;;;;;5861607;28;20202;-73
2023/11/11 00:18:18;;;;;;;2.05;1.85;;;;;;;;;;5862095;28;20527;-73
2023/11/11 00:21:11;;;;;;;2.70;1.58;;;;;;;;;;5862257;28;20057;-73
2023/11/11 00:24:03;;;;;;;6.20;3.35;;;;;;;;;;5861981;28;20046;-73
2023/11/11 00:26:55;;;;;;;2.42;2.22;;;;;;;;;;5862209;28;20041;-73
2023/11/11 00:29:46;;;;;;;3.13;2.58;;;;;;;;;;5861929;28;20048;-73
2023/11/11 00:32:38;;;;;;;7.18;3.97;;;;;;;;;;5861945;28;20124;-73
2023/11/11 00:35:28;;;;;;;4.75;3.42;;;;;;;;;;5862031;28;20088;-73
2023/11/11 00:38:19;;;;;;;3.72;2.42;;;;;;;;;;5862009;28;20053;-73
2023/11/11 00:41:11;;;;;;;5.13;3.55;;;;;;;;;;5861930;28;20045;-73
2023/11/11 00:44:02;;;;;;;3.60;3.30;;;;;;;;;;5861593;28;20049;-73
2023/11/11 00:46:53;;;;;;;3.17;2.88;;;;;;;;;;5862148;28;20046;-73
2023/11/11 00:49:49;;;;;;;4.93;2.95;;;;;;;;;;5861909;28;20041;-73
2023/11/11 00:52:39;;;;;;;5.28;4.22;;;;;;;;;;5861747;28;20052;-73
2023/11/11 00:55:30;;;;;;;6.15;4.55;;;;;;;;;;5861966;28;20049;-73
2023/11/11 00:58:21;;;;;;;3.95;3.33;;;;;;;;;;5861945;28;20045;-73
2023/11/11 01:01:12;;;;;;;6.32;3.15;;;;;;;;;;5864138;28;20049;-73
2023/11/11 01:04:04;;;;;;;3.30;2.85;;;;;;;;;;5870715;28;20046;-73
2023/11/11 01:06:56;;;;;;;6.05;3.95;;;;;;;;;;5862069;28;20048;-73
2023/11/11 01:09:47;;;;;;;4.82;4.15;;;;;;;;;;5861766;28;20052;-73
2023/11/11 01:12:38;;;;;;;6.25;3.90;;;;;;;;;;5861676;28;20053;-73
2023/11/11 01:15:29;;;;;;;4.18;3.70;;;;;;;;;;5861637;28;20618;-73
2023/11/11 01:18:20;;;;;;;3.20;2.65;;;;;;;;;;5861651;28;20053;-73
2023/11/11 01:21:11;;;;;;;5.00;3.15;;;;;;;;;;5861627;28;20096;-73
2023/11/11 01:24:02;;;;;;;6.65;3.58;;;;;;;;;;5861406;28;20124;-73
2023/11/11 01:26:53;;;;;;;2.80;2.60;;;;;;;;;;5863827;28;20037;-73
2023/11/11 01:29:44;;;;;;;5.38;4.15;;;;;;;;;;5865880;28;20254;-73
2023/11/11 01:32:35;;;;;;;8.30;4.00;;;;;;;;;;5865816;28;20491;-73
2023/11/11 01:35:26;;;;;;;5.80;4.03;;;;;;;;;;5865704;28;20132;-73
2023/11/11 01:38:19;;;;;;;8.00;4.38;;;;;;;;;;5865575;28;20057;-73
2023/11/11 01:41:10;;;;;;;5.18;3.92;;;;;;;;;;5865431;28;20057;-73
2023/11/11 01:44:01;;;;;;;5.90;3.78;;;;;;;;;;5865299;28;20057;-73
2023/11/11 01:46:52;;;;;;;3.40;3.10;;;;;;;;;;5866173;28;20072;-73
2023/11/11 01:49:43;;;;;;;4.43;3.50;;;;;;;;;;5865650;28;20388;-73
2023/11/11 01:52:35;;;;;;;4.80;3.65;;;;;;;;;;5865319;28;20045;-73
2023/11/11 01:55:26;;;;;;;6.90;4.10;;;;;;;;;;5865240;28;20046;-72
2023/11/11 01:58:17;;;;;;;3.13;2.90;;;;;;;;;;5865152;28;20045;-72
2023/11/11 02:01:08;;;;;;;3.92;3.45;;;;;;;;;;5865383;28;20068;-72
2023/11/11 02:03:59;;;;;;;6.75;4.65;;;;;;;;;;5865401;28;20077;-72
2023/11/11 02:06:50;;;;;;;36.03;18.67;;;;;;;;;;5865162;28;20091;-73
2023/11/11 02:09:41;;;;;;;20.35;10.88;;;;;;;;;;5865093;28;20045;-72
2023/11/11 02:12:32;;;;;;;11.13;9.30;;;;;;;;;;5864633;28;20418;-72
2023/11/11 02:15:23;;;;;;;7.63;4.82;;;;;;;;;;5865126;28;20046;-72
2023/11/11 02:18:13;;;;;;;8.25;4.53;;;;;;;;;;5863433;28;20077;-72
2023/11/11 02:21:04;;;;;;;5.20;4.70;;;;;;;;;;5864939;28;20041;-72
2023/11/11 02:23:59;;;;;;;8.27;3.85;;;;;;;;;;5865421;28;20045;-72
2023/11/11 02:26:50;;;;;;;4.57;4.10;;;;;;;;;;5879731;28;20836;-72
2023/11/11 02:29:47;;;;;;;3.75;3.20;;;;;;;;;;5864602;28;20057;-72
2023/11/11 02:32:38;;;;;;;8.60;5.78;;;;;;;;;;5864400;28;20053;-72
2023/11/11 02:35:29;;;;;;;5.50;4.72;;;;;;;;;;5864498;28;20077;-72
2023/11/11 02:38:23;;;;;;;6.95;5.28;;;;;;;;;;5863743;28;20487;-72
2023/11/11 02:41:14;;;;;;;7.40;4.90;;;;;;;;;;5864036;28;20049;-73
2023/11/11 02:44:06;;;;;;;6.15;4.30;;;;;;;;;;5864257;28;20045;-73
2023/11/11 02:46:57;;;;;;;4.57;3.80;;;;;;;;;;5864585;28;20048;-73
2023/11/11 02:49:47;;;;;;;6.35;4.30;;;;;;;;;;5862899;28;20730;-73
2023/11/11 02:52:39;;;;;;;4.60;3.28;;;;;;;;;;5863947;28;20053;-73
2023/11/11 02:55:29;;;;;;;7.78;3.85;;;;;;;;;;5863954;28;20050;-73
2023/11/11 02:58:20;;;;;;;3.70;3.03;;;;;;;;;;5863878;28;20057;-73
2023/11/11 03:01:11;;;;;;;10.40;7.63;;;;;;;;;;5863421;28;20053;-73
2023/11/11 03:04:02;;;;;;;15.27;5.82;;;;;;;;;;5863644;28;20538;-73
2023/11/11 03:06:53;;;;;;;6.50;5.90;;;;;;;;;;5863875;28;20053;-73
2023/11/11 03:09:44;;;;;;;4.40;3.97;;;;;;;;;;5863792;28;20049;-73
2023/11/11 03:12:36;;;;;;;10.15;5.35;;;;;;;;;;5863482;28;20055;-73
2023/11/11 03:15:27;;;;;;;4.78;4.05;;;;;;;;;;5863553;28;20411;-73
2023/11/11 03:18:19;;;;;;;3.13;2.75;;;;;;;;;;5862117;28;20419;-73
2023/11/11 03:21:20;;;;;;;4.18;3.78;;;;;;;;;;5863435;28;20120;-73
2023/11/11 03:24:10;;;;;;;6.50;4.20;;;;;;;;;;5863256;28;20526;-73
2023/11/11 03:27:01;;;;;;;10.35;3.97;;;;;;;;;;5863197;28;20072;-73
2023/11/11 03:29:52;;;;;;;7.32;3.90;;;;;;;;;;5863586;28;20442;-73
2023/11/11 03:32:43;;;;;;;5.32;3.75;;;;;;;;;;5862991;28;20068;-73
2023/11/11 03:35:34;;;;;;;5.53;4.03;;;;;;;;;;5862930;28;20042;-73
2023/11/11 03:38:24;;;;;;;8.52;5.43;;;;;;;;;;5862800;28;20045;-73
2023/11/11 03:41:15;;;;;;;8.18;5.15;;;;;;;;;;5863002;28;20053;-73
2023/11/11 03:44:08;;;;;;;5.68;4.32;;;;;;;;;;5862692;28;20415;-73
2023/11/11 03:46:59;;;;;;;7.32;5.18;;;;;;;;;;5863239;28;20507;-73
2023/11/11 03:49:50;;;;;;;9.40;5.72;;;;;;;;;;5862298;28;20042;-73
2023/11/11 03:52:41;;;;;;;5.80;4.53;;;;;;;;;;5862496;28;20096;-73
2023/11/11 03:55:32;;;;;;;5.85;5.18;;;;;;;;;;5862602;28;20095;-73
2023/11/11 03:58:22;;;;;;;7.22;5.38;;;;;;;;;;5862633;28;20045;-73
2023/11/11 04:01:13;;;;;;;7.72;6.20;;;;;;;;;;5862348;28;20049;-73
2023/11/11 04:04:04;;;;;;;7.00;6.38;;;;;;;;;;5862284;28;20128;-73
2023/11/11 04:06:55;;;;;;;9.95;6.20;;;;;;;;;;5862902;28;20041;-73
2023/11/11 04:09:47;;;;;;;7.95;6.90;;;;;;;;;;5862436;28;20371;-73
2023/11/11 04:12:39;;;;;;;9.23;5.78;;;;;;;;;;5862189;28;20073;-73
2023/11/11 04:15:31;;;;;;;7.05;6.35;;;;;;;;;;5862144;28;20049;-73
2023/11/11 04:18:22;;;;;;;8.23;6.85;;;;;;;;;;5862359;28;20045;-73
2023/11/11 04:21:13;;;;;;;7.93;5.80;;;;;;;;;;5862332;28;20057;-73
2023/11/11 04:24:05;;;;;;;17.55;7.53;;;;;;;;;;5861869;28;20045;-73
2023/11/11 04:26:56;;;;;;;14.77;8.13;;;;;;;;;;5862467;28;20049;-73
2023/11/11 04:29:46;;;;;;;11.13;7.97;;;;;;;;;;5862039;28;20125;-73
2023/11/11 04:32:38;;;;;;;7.97;6.63;;;;;;;;;;5861894;28;20076;-73
2023/11/11 04:35:28;;;;;;;10.05;7.18;;;;;;;;;;5862280;28;20049;-73
2023/11/11 04:38:23;;;;;;;9.52;5.43;;;;;;;;;;5862099;28;20056;-73
2023/11/11 04:41:18;;;;;;;7.40;6.63;;;;;;;;;;5862171;28;20128;-73
2023/11/11 04:44:10;;;;;;;7.55;5.28;;;;;;;;;;5862085;28;20056;-73
2023/11/11 04:47:00;;;;;;;8.35;5.57;;;;;;;;;;5862101;28;20049;-73
2023/11/11 04:49:51;;;;;;;5.50;4.82;;;;;;;;;;5862043;28;20046;-73
2023/11/11 04:52:42;;;;;;;19.48;6.88;;;;;;;;;;5861947;28;20049;-73
2023/11/11 04:55:33;;;;;;;10.32;5.90;;;;;;;;;;5861829;28;20431;-73
2023/11/11 04:58:24;;;;;;;9.00;6.22;;;;;;;;;;5861737;28;20049;-73
2023/11/11 05:01:15;;;;;;;9.93;6.25;;;;;;;;;;5862294;28;20052;-73
2023/11/11 05:04:06;;;;;;;12.07;7.22;;;;;;;;;;5866119;28;20059;-73
2023/11/11 05:06:57;;;;;;;9.73;7.22;;;;;;;;;;5866662;28;20139;-73
2023/11/11 05:09:48;;;;;;;9.50;6.40;;;;;;;;;;5866137;28;20053;-73
2023/11/11 05:12:38;;;;;;;11.70;8.20;;;;;;;;;;5865788;28;20092;-73
2023/11/11 05:15:30;;;;;;;9.10;7.28;;;;;;;;;;5866178;28;20045;-73
2023/11/11 05:18:21;;;;;;;8.48;7.40;;;;;;;;;;5866231;28;20053;-73
2023/11/11 05:21:12;;;;;;;9.20;6.68;;;;;;;;;;5866363;28;20231;-73
2023/11/11 05:24:04;;;;;;;13.15;9.25;;;;;;;;;;5866136;28;20423;-73
2023/11/11 05:26:54;;;;;;;10.18;7.50;;;;;;;;;;5866280;28;20514;-73
2023/11/11 05:29:45;;;;;;;11.55;6.40;;;;;;;;;;5865893;28;20041;-73
2023/11/11 05:32:36;;;;;;;26.23;9.63;;;;;;;;;;5865841;28;20057;-73
2023/11/11 05:35:27;;;;;;;13.65;7.68;;;;;;;;;;5865851;28;20049;-73
2023/11/11 05:38:17;;;;;;;12.63;9.07;;;;;;;;;;5865559;28;20507;-73
2023/11/11 05:41:08;;;;;;;12.48;8.35;;;;;;;;;;5865505;28;20418;-73
2023/11/11 05:43:59;;;;;;;17.05;6.78;;;;;;;;;;5865875;28;20519;-73
2023/11/11 05:46:50;;;;;;;9.43;6.72;;;;;;;;;;5865640;28;20514;-73
2023/11/11 05:49:43;;;;;;;10.45;8.75;;;;;;;;;;5865439;28;20049;-73
2023/11/11 05:52:34;;;;;;;11.15;8.23;;;;;;;;;;5865109;28;20056;-73
2023/11/11 05:55:28;;;;;;;14.90;8.93;;;;;;;;;;5865109;28;20045;-73
2023/11/11 05:58:19;;;;;;;11.05;7.65;;;;;;;;;;5865238;28;20840;-73
2023/11/11 06:01:11;;;;;;;9.00;8.05;;;;;;;;;;5865045;28;20364;-73
2023/11/11 06:04:02;;;;;;;15.05;9.15;;;;;;;;;;5864890;28;20053;-73
2023/11/11 06:06:55;;;;;;;9.27;7.00;;;;;;;;;;5864170;28;20124;-73
2023/11/11 06:09:46;;;;;;;9.32;8.35;;;;;;;;;;5864974;28;20053;-73
2023/11/11 06:12:37;;;;;;;9.60;8.60;;;;;;;;;;5863986;28;20065;-73
2023/11/11 06:15:28;;;;;;;14.43;10.25;;;;;;;;;;5864608;28;20046;-73
2023/11/11 06:18:19;;;;;;;18.50;13.18;;;;;;;;;;5864760;28;20050;-73
2023/11/11 06:21:10;;;;;;;19.33;12.93;;;;;;;;;;5864946;28;20564;-73
2023/11/11 06:24:01;;;;;;;19.33;14.20;;;;;;;;;;5864720;28;20415;-74
2023/11/11 06:26:52;;;;;;;16.08;11.73;;;;;;;;;;5864932;28;20045;-74
2023/11/11 06:29:43;;;;;;;17.10;10.13;;;;;;;;;;5864568;28;20459;-74
2023/11/11 06:32:35;;;;;;;19.08;12.20;;;;;;;;;;5864310;28;20052;-74
2023/11/11 06:35:27;;;;;;;14.70;9.90;;;;;;;;;;5864563;28;20048;-74
2023/11/11 06:38:19;;;;;;;12.75;8.13;;;;;;;;;;5864428;28;20049;-74
2023/11/11 06:41:10;;;;;;;12.80;6.95;;;;;;;;;;5864347;28;20495;-74
2023/11/11 06:44:01;;;;;;;18.52;8.50;;;;;;;;;;5864255;28;20045;-74
2023/11/11 06:46:51;;;;;;;15.55;7.90;;;;;;;;;;5864446;28;20052;-74
2023/11/11 06:49:42;;;;;;;19.17;11.55;;;;;;;;;;5864046;28;20060;-74
2023/11/11 06:52:35;;;;;;;33.78;18.90;;;;;;;;;;5863792;28;20046;-74
2023/11/11 06:55:29;;;;;;;31.73;18.17;;;;;;;;;;5864024;28;20057;-74
2023/11/11 06:58:20;;;;;;;25.52;14.25;;;;;;;;;;5864061;28;20057;-74
2023/11/11 07:01:11;;;;;;;26.48;14.10;;;;;;;;;;5863846;28;20049;-74
2023/11/11 07:04:03;;;;;;;19.98;13.82;;;;;;;;;;5863832;28;20140;-74
2023/11/11 07:06:54;;;;;;;24.95;14.25;;;;;;;;;;5864204;28;20050;-74
2023/11/11 07:09:46;;;;;;;20.88;11.50;;;;;;;;;;5863683;28;20073;-74
2023/11/11 07:12:36;;;;;;;14.55;10.45;;;;;;;;;;5863498;28;20041;-74
2023/11/11 07:15:28;;;;;;;21.55;12.05;;;;;;;;;;5863880;28;20072;-74
2023/11/11 07:18:18;;;;;;;18.90;11.80;;;;;;;;;;5863422;28;20438;-74
2023/11/11 07:21:22;;;;;;;15.40;9.05;;;;;;;;;;5863527;28;20068;-74
2023/11/11 07:24:14;;;;;;;10.90;8.00;;;;;;;;;;5863292;28;20049;-74
2023/11/11 07:27:05;;;;;;;14.90;9.23;;;;;;;;;;5861820;28;20567;-74
2023/11/11 07:29:55;;;;;;;18.05;10.35;;;;;;;;;;5863580;28;20053;-74
2023/11/11 07:32:48;;;;;;;19.95;10.82;;;;;;;;;;5863096;28;20049;-74
2023/11/11 07:35:51;;;;;;;11.75;9.23;;;;;;;;;;5863531;28;20044;-74
2023/11/11 07:38:42;;;;;;;12.30;8.23;;;;;;;;;;5863013;28;20046;-74
2023/11/11 07:41:33;;;;;;;11.40;9.35;;;;;;;;;;5862778;28;20056;-74
2023/11/11 07:44:24;;;;;;;15.75;8.23;;;;;;;;;;5862927;28;20416;-74
2023/11/11 07:47:15;;;;;;;13.48;8.63;;;;;;;;;;5862855;28;20141;-74
2023/11/11 07:50:07;;;;;;;11.13;8.65;;;;;;;;;;5862728;28;20132;-74
2023/11/11 07:52:58;;;;;;;15.65;10.70;;;;;;;;;;5863433;28;20046;-74
2023/11/11 07:55:48;;;;;;;11.52;7.20;;;;;;;;;;5862701;28;20038;-74
2023/11/11 07:58:39;;;;;;;11.15;7.57;;;;;;;;;;5862440;28;20049;-74
2023/11/11 08:01:30;;;;;;;13.30;8.93;;;;;;;;;;5862539;28;20049;-74
2023/11/11 08:04:21;;;;;;;18.38;9.80;;;;;;;;;;5862477;28;20091;-74
2023/11/11 08:07:13;;;;;;;15.02;7.65;;;;;;;;;;5862477;28;20387;-74
2023/11/11 08:10:06;;;;;;;19.58;9.73;;;;;;;;;;5862486;28;20495;-74
2023/11/11 08:12:57;;;;;;;11.20;7.75;;;;;;;;;;5862761;28;20132;-74
2023/11/11 08:15:48;;;;;;;16.13;9.68;;;;;;;;;;5862437;28;20045;-74
2023/11/11 08:18:39;;;;;;;14.25;7.80;;;;;;;;;;5862291;28;20144;-74
2023/11/11 08:21:38;;;;;;;12.38;8.63;;;;;;;;;;5862355;28;20055;-74
2023/11/11 08:24:29;;;;;;;12.35;8.43;;;;;;;;;;5862069;28;20048;-74
2023/11/11 08:27:20;;;;;;;11.57;6.82;;;;;;;;;;5862135;28;20053;-74
2023/11/11 08:30:12;;;;;;;11.27;7.85;;;;;;;;;;5862268;28;20103;-74
2023/11/11 08:33:03;;;;;;;13.35;9.70;;;;;;;;;;5862178;28;20049;-74
2023/11/11 08:35:54;;;;;;;22.05;9.57;;;;;;;;;;5862145;28;20128;-74
2023/11/11 08:38:45;;;;;;;21.75;10.98;;;;;;;;;;5862023;28;20054;-74
2023/11/11 08:41:39;;;;;;;15.20;10.45;;;;;;;;;;5862272;28;20064;-74
2023/11/11 08:44:30;;;;;;;20.45;11.05;;;;;;;;;;5861995;28;20045;-74
2023/11/11 08:47:21;;;;;;;19.83;10.80;;;;;;;;;;5861676;28;20061;-74
2023/11/11 08:50:12;;;;;;;15.63;10.75;;;;;;;;;;5861880;28;20060;-74
2023/11/11 08:53:03;;;;;;;13.95;8.65;;;;;;;;;;5861920;28;20073;-74
2023/11/11 08:55:54;;;;;;;13.30;8.23;;;;;;;;;;5862266;28;20061;-74
2023/11/11 08:58:44;;;;;;;11.52;7.57;;;;;;;;;;5861741;28;20053;-74
2023/11/11 09:01:36;;;;;;;19.20;10.07;;;;;;;;;;5861784;28;20046;-74
2023/11/11 09:04:27;;;;;;;9.65;5.90;;;;;;;;;;5861684;28;20053;-74
2023/11/11 09:07:18;;;;;;;15.35;9.02;;;;;;;;;;5861689;28;20060;-74
2023/11/11 09:10:09;;;;;;;12.02;9.63;;;;;;;;;;5861802;28;20057;-74
2023/11/11 09:13:00;;;;;;;10.35;7.55;;;;;;;;;;5861947;28;20411;-74
2023/11/11 09:15:51;;;;;;;14.57;8.45;;;;;;;;;;5862072;28;20037;-74
2023/11/11 09:18:42;;;;;;;16.85;9.02;;;;;;;;;;5861635;28;20531;-74
2023/11/11 09:21:38;;;;;;;10.68;7.60;;;;;;;;;;5861716;28;20050;-74
2023/11/11 09:24:30;;;;;;;11.80;8.65;;;;;;;;;;5861603;28;20130;-74
2023/11/11 09:27:20;;;;;;;15.50;9.98;;;;;;;;;;5861529;28;20534;-74
2023/11/11 09:30:11;;;;;;;10.73;7.38;;;;;;;;;;5861759;28;20514;-74
2023/11/11 09:33:03;;;;;;;12.20;7.22;;;;;;;;;;5861584;28;20056;-74
2023/11/11 09:35:55;;;;;;;18.52;9.30;;;;;;;;;;5862181;28;20050;-74
2023/11/11 09:38:46;;;;;;;13.57;9.00;;;;;;;;;;5861742;28;20045;-74
2023/11/11 09:41:38;;;;;;;9.55;7.55;;;;;;;;;;5861500;28;20049;-73
2023/11/11 09:44:28;;;;;;;12.27;7.38;;;;;;;;;;5843810;28;20061;-73
2023/11/11 09:47:28;;;;;;;16.92;8.73;;;;;;;;;;5861509;28;20053;-73
2023/11/11 09:50:22;;;;;;;15.40;8.20;;;;;;;;;;5864242;28;20053;-73
2023/11/11 09:53:13;;;;;;;15.02;8.68;;;;;;;;;;5865599;28;20049;-73
2023/11/11 09:56:06;;;;;;;12.68;7.47;;;;;;;;;;5864077;28;20041;-74
2023/11/11 09:58:59;;;;;;;10.38;6.38;;;;;;;;;;5864649;28;20049;-73
2023/11/11 10:01:51;;;;;;;16.98;9.35;;;;;;;;;;5864321;28;20491;-73
2023/11/11 10:04:42;;;;;;;13.50;6.15;;;;;;;;;;5865348;28;20045;-73
2023/11/11 10:07:33;;;;;;;13.77;7.90;;;;;;;;;;5864999;28;20092;-73
2023/11/11 10:10:25;;;;;;;11.55;6.75;;;;;;;;;;5863672;28;20045;-73
2023/11/11 10:13:16;;;;;;;10.48;7.65;;;;;;;;;;5864983;28;20069;-72
2023/11/11 10:16:17;;;;;;;13.48;8.38;;;;;;;;;;5865170;28;20045;-73
2023/11/11 10:19:12;;;;;;;12.25;7.78;;;;;;;;;;5864956;28;20478;-73
2023/11/11 10:22:03;;;;;;;9.27;7.45;;;;;;;;;;5864858;28;20045;-73
2023/11/11 10:24:56;;;;;;;7.70;6.43;;;;;;;;;;5865408;28;20419;-73
2023/11/11 10:27:52;;;;;;;17.88;7.75;;;;;;;;;;5864816;28;20053;-73
2023/11/11 10:30:43;;;;;;;13.18;7.97;;;;;;;;;;5864898;28;20046;-73
2023/11/11 10:33:35;;;;;;;14.23;7.95;;;;;;;;;;5864470;28;20068;-73
2023/11/11 10:36:25;;;;;;;19.85;10.35;;;;;;;;;;5864879;28;20445;-73
2023/11/11 10:39:16;;;;;;;13.57;8.73;;;;;;;;;;5863230;28;20415;-73
2023/11/11 10:42:07;;;;;;;12.15;7.72;;;;;;;;;;5879781;28;20622;-73
2023/11/11 10:44:59;;;;;;;11.93;8.25;;;;;;;;;;5864893;28;20053;-73
2023/11/11 10:47:50;;;;;;;10.30;7.18;;;;;;;;;;5863533;28;20048;-73
2023/11/11 10:50:42;;;;;;;7.75;6.68;;;;;;;;;;5864817;28;20050;-73
2023/11/11 10:53:36;;;;;;;10.65;6.13;;;;;;;;;;5864259;28;20128;-73
2023/11/11 10:56:28;;;;;;;8.82;6.45;;;;;;;;;;5864270;28;20132;-73
2023/11/11 10:59:22;;;;;;;14.65;6.53;;;;;;;;;;5863904;28;20052;-73
2023/11/11 11:02:14;;;;;;;6.88;5.95;;;;;;;;;;5864075;28;20053;-73
2023/11/11 11:05:10;;;;;;;5.13;4.32;;;;;;;;;;5864261;28;20053;-73
2023/11/11 11:08:31;;;;;;;15.15;9.05;;;;;;;;;;5878780;28;20041;-73
2023/11/11 11:11:44;;;;;;;24.73;14.45;;;;;;;;;;5863985;28;20388;-73
2023/11/11 11:14:37;;;;;;;10.45;5.78;;;;;;;;;;5864172;28;20056;-73
2023/11/11 11:17:35;;;;;;;13.77;7.72;;;;;;;;;;5863671;28;20041;-73
2023/11/11 11:20:26;;;;;;;12.90;6.73;;;;;;;;;;5863755;28;20042;-73
2023/11/11 11:23:17;;;;;;;16.60;9.13;;;;;;;;;;5863757;28;20068;-73
2023/11/11 11:26:10;;;;;;;8.55;6.65;;;;;;;;;;5863608;28;20517;-73
2023/11/11 11:29:21;;;;;;;13.38;7.68;;;;;;;;;;5863517;28;20552;-73
2023/11/11 11:32:12;;;;;;;8.15;6.22;;;;;;;;;;5863390;28;20551;-73
2023/11/11 11:35:26;;;;;;;6.25;5.57;;;;;;;;;;5861698;28;20096;-73
2023/11/11 11:38:34;;;;;;;9.63;6.82;;;;;;;;;;5863259;28;20487;-73
2023/11/11 11:41:26;;;;;;;8.90;6.05;;;;;;;;;;5863172;28;20045;-73
2023/11/11 11:44:19;;;;;;;11.90;7.28;;;;;;;;;;5862079;28;20056;-73
2023/11/11 11:47:10;;;;;;;10.90;6.93;;;;;;;;;;5863087;28;20499;-73
2023/11/11 11:50:03;;;;;;;6.00;5.00;;;;;;;;;;5863279;28;20052;-73
2023/11/11 11:52:54;;;;;;;15.93;7.47;;;;;;;;;;5863478;28;20124;-73
2023/11/11 11:55:45;;;;;;;10.70;6.47;;;;;;;;;;5863041;28;20061;-72
2023/11/11 11:58:50;;;;;;;8.40;6.50;;;;;;;;;;5862754;28;20128;-73
2023/11/11 12:01:41;;;;;;;10.82;7.35;;;;;;;;;;5862713;28;20041;-73
2023/11/11 12:04:32;;;;;;;6.22;4.57;;;;;;;;;;5862658;28;20449;-73
2023/11/11 12:07:25;;;;;;;10.20;5.63;;;;;;;;;;5862586;28;20175;-73
2023/11/11 12:10:16;;;;;;;11.75;6.50;;;;;;;;;;5862251;28;20103;-73
2023/11/11 12:13:07;;;;;;;7.40;5.13;;;;;;;;;;5862174;28;20045;-73
2023/11/11 12:15:58;;;;;;;13.77;5.47;;;;;;;;;;5863165;28;20057;-73
2023/11/11 12:18:49;;;;;;;8.45;5.65;;;;;;;;;;5862532;28;20047;-73
2023/11/11 12:21:43;;;;;;;14.23;5.95;;;;;;;;;;5862433;28;20045;-73
2023/11/11 12:24:34;;;;;;;9.57;6.47;;;;;;;;;;5861375;28;20438;-73
2023/11/11 12:27:26;;;;;;;15.95;7.85;;;;;;;;;;5862325;28;20045;-73
2023/11/11 12:30:21;;;;;;;13.73;6.85;;;;;;;;;;5862522;28;20499;-73
2023/11/11 12:33:12;;;;;;;17.50;10.27;;;;;;;;;;5862234;28;20056;-73
2023/11/11 12:36:03;;;;;;;17.98;7.43;;;;;;;;;;5860853;28;20048;-73
2023/11/11 12:39:08;;;;;;;12.30;7.40;;;;;;;;;;5861357;28;20049;-73
2023/11/11 12:42:03;;;;;;;12.98;7.10;;;;;;;;;;5862376;28;20411;-73
2023/11/11 12:44:54;;;;;;;18.80;8.60;;;;;;;;;;5862438;28;20037;-73
2023/11/11 12:47:52;;;;;;;10.48;7.25;;;;;;;;;;5861987;28;20057;-73
2023/11/11 12:50:44;;;;;;;12.05;8.05;;;;;;;;;;5862066;28;20041;-73
2023/11/11 12:53:44;;;;;;;11.60;8.68;;;;;;;;;;5862016;28;20049;-73
2023/11/11 12:56:46;;;;;;;42.95;21.52;;;;;;;;;;5862042;28;20506;-73
2023/11/11 12:59:36;;;;;;;45.33;22.67;;;;;;;;;;5862031;28;20088;-73
2023/11/11 13:02:28;;;;;;;10.38;7.47;;;;;;;;;;5861936;28;20073;-73
2023/11/11 13:05:18;;;;;;;9.27;6.20;;;;;;;;;;5862385;28;20503;-73
2023/11/11 13:08:09;;;;;;;16.58;7.13;;;;;;;;;;5861647;28;20068;-73
2023/11/11 13:11:02;;;;;;;9.55;5.95;;;;;;;;;;5861981;28;20045;-73
2023/11/11 13:13:53;;;;;;;10.75;7.13;;;;;;;;;;5861938;28;20041;-73
2023/11/11 13:16:44;;;;;;;19.65;6.07;;;;;;;;;;5861926;28;20416;-73
2023/11/11 13:19:42;;;;;;;18.05;8.10;;;;;;;;;;5862048;28;20486;-73
2023/11/11 13:22:33;;;;;;;24.73;10.57;;;;;;;;;;5863188;28;20115;-73
2023/11/11 13:25:24;;;;;;;11.15;7.38;;;;;;;;;;5866284;28;20160;-73
2023/11/11 13:28:15;;;;;;;11.05;8.32;;;;;;;;;;5866149;28;20064;-73
2023/11/11 13:31:07;;;;;;;18.77;11.23;;;;;;;;;;5866121;28;20072;-73
2023/11/11 13:33:58;;;;;;;23.80;11.07;;;;;;;;;;5866343;28;20049;-73
2023/11/11 13:36:49;;;;;;;17.05;10.80;;;;;;;;;;5866071;28;20056;-73
2023/11/11 13:39:48;;;;;;;9.88;7.95;;;;;;;;;;5865655;28;20057;-73
2023/11/11 13:42:39;;;;;;;;;;;;;;;;;;5866280;28;20052;-73
2023/11/11 13:45:33;;;;;;;12.85;7.65;;;;;;;;;;5865783;28;19921;-73
2023/11/11 13:48:24;;;;;;;22.58;12.40;;;;;;;;;;5865646;28;20050;-73
2023/11/11 13:51:15;;;;;;;13.75;9.88;;;;;;;;;;5865657;28;20045;-73
2023/11/11 13:54:07;;;;;;;17.45;9.40;;;;;;;;;;5865447;28;20511;-73
2023/11/11 13:56:57;;;;;;;7.97;5.95;;;;;;;;;;5866138;28;20517;-73
2023/11/11 13:59:49;;;;;;;6.85;4.55;;;;;;;;;;5865613;28;20049;-73
2023/11/11 14:02:40;;;;;;;5.72;5.13;;;;;;;;;;5865140;28;20049;-73
2023/11/11 14:05:31;;;;;;;9.20;5.93;;;;;;;;;;5865451;28;20179;-73
2023/11/11 14:08:23;;;;;;;11.02;7.28;;;;;;;;;;5865150;28;20045;-73
2023/11/11 14:11:14;;;;;;;17.38;10.27;;;;;;;;;;5865084;28;20062;-73
2023/11/11 14:14:05;;;;;;;18.23;9.30;;;;;;;;;;5865155;28;20064;-73
2023/11/11 14:16:58;;;;;;;21.83;14.05;;;;;;;;;;5865552;28;20418;-73
2023/11/11 14:19:49;;;;;;;21.33;13.23;;;;;;;;;;5865091;28;20135;-73
2023/11/11 14:22:42;;;;;;;27.38;14.35;;;;;;;;;;5863528;28;20042;-73
2023/11/11 14:25:50;;;;;;;21.58;14.20;;;;;;;;;;5865125;28;20045;-73
2023/11/11 14:28:40;;;;;;;26.42;15.63;;;;;;;;;;5864580;28;20146;-73
2023/11/11 14:31:33;;;;;;;27.83;15.13;;;;;;;;;;5864640;28;20514;-73
2023/11/11 14:34:24;;;;;;;27.75;12.57;;;;;;;;;;5863902;28;20423;-73
2023/11/11 14:37:15;;;;;;;22.33;11.20;;;;;;;;;;5864542;28;20053;-73
2023/11/11 14:40:12;;;;;;;31.65;15.60;;;;;;;;;;5864525;28;20103;-73
2023/11/11 14:43:03;;;;;;;13.25;9.23;;;;;;;;;;5864619;28;20072;-73
2023/11/11 14:45:57;;;;;;;20.60;9.88;;;;;;;;;;5865001;28;20041;-73
2023/11/11 14:48:48;;;;;;;21.40;12.48;;;;;;;;;;5864354;28;20049;-73
2023/11/11 14:51:39;;;;;;;27.10;18.73;;;;;;;;;;5864144;28;20064;-73
2023/11/11 14:54:29;;;;;;;66.97;35.70;;;;;;;;;;5864257;28;20045;-73
2023/11/11 14:57:21;;;;;;;51.70;32.20;;;;;;;;;;5864461;28;20403;-73
2023/11/11 15:00:22;;;;;;;43.53;26.20;;;;;;;;;;5864124;28;20049;-73
2023/11/11 15:03:13;;;;;;;58.17;29.48;;;;;;;;;;5862855;28;20076;-73
2023/11/11 15:06:04;;;;;;;46.00;24.88;;;;;;;;;;5862640;28;20089;-73
2023/11/11 15:08:55;;;;;;;40.22;25.00;;;;;;;;;;5864269;28;20057;-72
2023/11/11 15:11:46;;;;;;;35.80;22.05;;;;;;;;;;5863587;28;20777;-72
2023/11/11 15:14:36;;;;;;;32.92;19.27;;;;;;;;;;5863937;28;20400;-72
2023/11/11 15:17:27;;;;;;;27.67;16.33;;;;;;;;;;5863871;28;20049;-72
2023/11/11 15:20:19;;;;;;;42.38;18.85;;;;;;;;;;5863833;28;20122;-72
2023/11/11 15:23:13;;;;;;;31.63;18.92;;;;;;;;;;5863617;28;20049;-72
2023/11/11 15:26:05;;;;;;;29.27;17.05;;;;;;;;;;5863688;28;20049;-72
2023/11/11 15:28:56;;;;;;;25.10;15.75;;;;;;;;;;5864057;28;20642;-72
2023/11/11 15:31:47;;;;;;;25.27;17.35;;;;;;;;;;5863412;28;20096;-72
2023/11/11 15:34:39;;;;;;;30.63;16.60;;;;;;;;;;5863406;28;20046;-72
2023/11/11 15:37:32;;;;;;;55.55;20.65;;;;;;;;;;5863060;28;20115;-72
2023/11/11 15:40:23;;;;;;;36.55;23.70;;;;;;;;;;5863313;28;20072;-72
2023/11/11 15:43:14;;;;;;;40.08;18.95;;;;;;;;;;5862946;28;20056;-72
2023/11/11 15:46:04;;;;;;;28.10;17.00;;;;;;;;;;5862994;28;20060;-72
2023/11/11 15:48:55;;;;;;;31.35;18.92;;;;;;;;;;5863441;28;20137;-72
2023/11/11 15:51:47;;;;;;;28.52;21.10;;;;;;;;;;5862644;28;20045;-72
2023/11/11 15:54:38;;;;;;;67.72;38.97;;;;;;;;;;5862716;28;20210;-72
2023/11/11 15:57:28;;;;;;;34.13;19.23;;;;;;;;;;5862727;28;20052;-72
2023/11/11 16:00:19;;;;;;;22.48;18.42;;;;;;;;;;5862855;28;20495;-72
2023/11/11 16:03:10;;;;;;;20.80;14.48;;;;;;;;;;5862241;28;20076;-72
2023/11/11 16:06:01;;;;;;;31.00;16.80;;;;;;;;;;5862624;28;20045;-72
2023/11/11 16:08:52;;;;;;;35.58;17.20;;;;;;;;;;5862700;28;20050;-72
2023/11/11 16:11:46;;;;;;;23.20;14.23;;;;;;;;;;5862130;28;20049;-72
2023/11/11 16:14:36;;;;;;;18.15;12.15;;;;;;;;;;5861208;28;20064;-72
2023/11/11 16:17:29;;;;;;;34.60;16.73;;;;;;;;;;5862016;28;20071;-72
2023/11/11 16:20:19;;;;;;;27.52;15.52;;;;;;;;;;5862208;28;20142;-71
2023/11/11 16:23:10;;;;;;;34.75;16.60;;;;;;;;;;5862239;28;20060;-70
2023/11/11 16:26:03;;;;;;;20.20;10.82;;;;;;;;;;5862382;28;20128;-70
2023/11/11 16:28:53;;;;;;;33.90;21.17;;;;;;;;;;5862960;28;20511;-71
2023/11/11 16:31:45;;;;;;;11.07;7.72;;;;;;;;;;5862410;28;20049;-71
2023/11/11 16:34:36;;;;;;;12.35;6.75;;;;;;;;;;5862624;28;20056;-71
2023/11/11 16:37:27;;;;;;;16.13;9.73;;;;;;;;;;5862373;28;20056;-71
2023/11/11 16:40:18;;;;;;;11.98;6.28;;;;;;;;;;5862297;28;20053;-71
2023/11/11 16:43:09;;;;;;;8.57;6.82;;;;;;;;;;5862131;28;20073;-71
2023/11/11 16:46:00;;;;;;;13.20;8.05;;;;;;;;;;5862749;28;20479;-71
2023/11/11 16:48:51;;;;;;;20.65;13.93;;;;;;;;;;5862175;28;20042;-72
2023/11/11 16:51:42;;;;;;;12.77;8.98;;;;;;;;;;5862124;28;20046;-71
2023/11/11 16:54:33;;;;;;;17.25;5.60;;;;;;;;;;5861862;28;20042;-71
2023/11/11 16:57:23;;;;;;;9.77;3.35;;;;;;;;;;5863146;28;20100;-70